Time;durP1;ratioP1;P1;durP2;ratioP2;P2;SDS_P1;SDS_P2;PMS_P1;PMS_P2;Temp;Humidity;BMP_temperature;BMP_pressure;BME280_temperature;BME280_humidity;BME280_pressure;Samples;Min_cycle;Max_cycle;Signal;HPM_P1;HPM_P2
2021/03/23 00:00:39;;;;;;;3.37;2.00;;;;;;;;;;5131052;27;20458;-73
2021/03/23 00:03:08;;;;;;;3.77;2.07;;;;;;;;;;5120120;27;20587;-73
2021/03/23 00:05:36;;;;;;;3.83;2.03;;;;;;;;;;5122952;27;20467;-73
2021/03/23 00:08:05;;;;;;;3.50;2.00;;;;;;;;;;5122499;27;20443;-73
2021/03/23 00:10:32;;;;;;;5.17;3.80;;;;;;;;;;5119873;28;20470;-73
2021/03/23 00:13:00;;;;;;;5.33;2.50;;;;;;;;;;5121220;27;20512;-73
2021/03/23 00:15:33;;;;;;;5.03;2.77;;;;;;;;;;5118994;28;20532;-73
2021/03/23 00:18:01;;;;;;;3.43;2.13;;;;;;;;;;5120424;27;20446;-73
2021/03/23 00:20:29;;;;;;;6.60;2.60;;;;;;;;;;5121017;27;20537;-73
2021/03/23 00:22:56;;;;;;;4.03;2.50;;;;;;;;;;5119660;28;20485;-73
2021/03/23 00:25:23;;;;;;;3.07;1.67;;;;;;;;;;5123803;27;20516;-73
2021/03/23 00:27:50;;;;;;;6.10;1.60;;;;;;;;;;5140108;27;20452;-73
2021/03/23 00:30:19;;;;;;;3.77;1.90;;;;;;;;;;5121883;27;20462;-73
2021/03/23 00:32:46;;;;;;;3.47;2.30;;;;;;;;;;5101721;28;20447;-73
2021/03/23 00:35:14;;;;;;;3.30;2.50;;;;;;;;;;5118734;28;20738;-73
2021/03/23 00:37:42;;;;;;;4.73;2.23;;;;;;;;;;5118845;27;20462;-73
2021/03/23 00:40:11;;;;;;;3.33;2.20;;;;;;;;;;5134468;27;20487;-74
2021/03/23 00:42:39;;;;;;;5.80;3.63;;;;;;;;;;5125206;27;20770;-73
2021/03/23 00:45:07;;;;;;;3.73;2.93;;;;;;;;;;5129332;27;20545;-73
2021/03/23 00:47:34;;;;;;;5.67;3.33;;;;;;;;;;5139590;27;20442;-73
2021/03/23 00:50:02;;;;;;;6.37;3.27;;;;;;;;;;5125245;27;20458;-73
2021/03/23 00:52:30;;;;;;;4.83;2.80;;;;;;;;;;5118134;27;20447;-73
2021/03/23 00:54:57;;;;;;;6.23;2.97;;;;;;;;;;5119335;27;20447;-73
2021/03/23 00:57:24;;;;;;;4.30;3.03;;;;;;;;;;5138363;27;20527;-73
2021/03/23 00:59:51;;;;;;;6.13;2.70;;;;;;;;;;5126040;27;20583;-73
2021/03/23 01:02:19;;;;;;;4.00;2.70;;;;;;;;;;5119324;27;20494;-74
2021/03/23 01:04:46;;;;;;;5.27;2.27;;;;;;;;;;5117917;28;20542;-73
2021/03/23 01:07:21;;;;;;;3.87;1.97;;;;;;;;;;5117338;27;20458;-73
2021/03/23 01:09:49;;;;;;;3.20;2.17;;;;;;;;;;5133964;27;20445;-74
2021/03/23 01:12:16;;;;;;;6.90;3.60;;;;;;;;;;5119372;27;20522;-73
2021/03/23 01:14:44;;;;;;;3.57;3.00;;;;;;;;;;5118541;28;20777;-73
2021/03/23 01:17:11;;;;;;;3.90;3.10;;;;;;;;;;5119043;28;20447;-73
2021/03/23 01:19:39;;;;;;;4.93;2.70;;;;;;;;;;5132326;27;20462;-73
2021/03/23 01:22:09;;;;;;;6.50;2.87;;;;;;;;;;5118412;28;20833;-73
2021/03/23 01:24:38;;;;;;;4.63;2.33;;;;;;;;;;5118936;28;20452;-73
2021/03/23 01:27:07;;;;;;;6.00;3.10;;;;;;;;;;5118031;28;20473;-73
2021/03/23 01:29:34;;;;;;;4.93;2.80;;;;;;;;;;5131743;27;20450;-73
2021/03/23 01:32:02;;;;;;;8.90;3.03;;;;;;;;;;5136782;27;20910;-73
2021/03/23 01:34:29;;;;;;;4.57;2.27;;;;;;;;;;5138142;27;20780;-73
2021/03/23 01:36:56;;;;;;;3.27;2.30;;;;;;;;;;5125994;27;20447;-73
2021/03/23 01:39:23;;;;;;;5.13;2.27;;;;;;;;;;5130059;27;20482;-74
2021/03/23 01:41:51;;;;;;;5.60;2.90;;;;;;;;;;5137141;27;20496;-73
2021/03/23 01:44:19;;;;;;;5.87;2.87;;;;;;;;;;5137769;27;20455;-74
2021/03/23 01:46:47;;;;;;;6.03;2.40;;;;;;;;;;5137421;27;20462;-74
2021/03/23 01:49:18;;;;;;;4.67;2.80;;;;;;;;;;5126722;27;20880;-73
2021/03/23 01:51:48;;;;;;;6.00;3.07;;;;;;;;;;5118096;28;20513;-73
2021/03/23 01:54:19;;;;;;;5.97;3.03;;;;;;;;;;5117915;28;20504;-73
2021/03/23 01:56:46;;;;;;;3.40;2.53;;;;;;;;;;5117360;28;20906;-73
2021/03/23 01:59:14;;;;;;;6.17;2.70;;;;;;;;;;5127780;27;20447;-73
2021/03/23 02:01:42;;;;;;;5.30;2.70;;;;;;;;;;5123843;27;20516;-73
2021/03/23 02:04:11;;;;;;;8.50;4.60;;;;;;;;;;5120957;27;20822;-73
2021/03/23 02:06:40;;;;;;;3.20;2.13;;;;;;;;;;5117565;28;20456;-73
2021/03/23 02:09:09;;;;;;;3.33;1.97;;;;;;;;;;5127000;27;20466;-73
2021/03/23 02:11:38;;;;;;;5.73;2.23;;;;;;;;;;5137408;27;20849;-73
2021/03/23 02:14:06;;;;;;;7.83;2.23;;;;;;;;;;5137967;27;20469;-72
2021/03/23 02:16:33;;;;;;;4.17;2.23;;;;;;;;;;5136331;27;20511;-73
2021/03/23 02:19:01;;;;;;;3.93;2.20;;;;;;;;;;5129388;27;20748;-72
2021/03/23 02:21:30;;;;;;;4.93;2.83;;;;;;;;;;5119780;27;20452;-73
2021/03/23 02:23:57;;;;;;;6.17;1.87;;;;;;;;;;5117395;28;20490;-73
2021/03/23 02:26:25;;;;;;;4.20;2.10;;;;;;;;;;5131916;28;20804;-73
2021/03/23 02:28:53;;;;;;;3.23;1.90;;;;;;;;;;5117066;28;20519;-73
2021/03/23 02:31:22;;;;;;;4.23;2.20;;;;;;;;;;5116494;28;20461;-72
2021/03/23 02:33:49;;;;;;;6.00;2.60;;;;;;;;;;5125461;28;20898;-73
2021/03/23 02:36:17;;;;;;;4.77;2.20;;;;;;;;;;5136369;28;20444;-73
2021/03/23 02:38:45;;;;;;;3.03;2.03;;;;;;;;;;5137322;28;20469;-73
2021/03/23 02:41:13;;;;;;;4.20;2.13;;;;;;;;;;5137558;28;20441;-72
2021/03/23 02:43:40;;;;;;;3.27;1.97;;;;;;;;;;5137369;28;20526;-73
2021/03/23 02:46:08;;;;;;;5.47;2.60;;;;;;;;;;5136906;28;20460;-73
2021/03/23 02:48:35;;;;;;;7.10;2.60;;;;;;;;;;5135109;28;20458;-72
2021/03/23 02:51:02;;;;;;;5.03;2.00;;;;;;;;;;5123043;28;20448;-72
2021/03/23 02:53:30;;;;;;;5.10;3.30;;;;;;;;;;5125619;28;20486;-72
2021/03/23 02:55:58;;;;;;;3.30;2.30;;;;;;;;;;5137979;28;20449;-72
2021/03/23 02:58:25;;;;;;;2.10;1.40;;;;;;;;;;5138393;28;20475;-72
2021/03/23 03:00:53;;;;;;;3.70;1.87;;;;;;;;;;5123904;28;20453;-72
2021/03/23 03:03:20;;;;;;;4.80;1.83;;;;;;;;;;5117568;28;20740;-73
2021/03/23 03:05:48;;;;;;;4.70;2.53;;;;;;;;;;5127496;28;20514;-72
2021/03/23 03:08:15;;;;;;;3.20;2.40;;;;;;;;;;5137860;28;20542;-72
2021/03/23 03:10:42;;;;;;;4.10;1.97;;;;;;;;;;5120054;28;20451;-74
2021/03/23 03:13:11;;;;;;;4.83;2.27;;;;;;;;;;5117918;28;20465;-73
2021/03/23 03:15:41;;;;;;;4.30;2.00;;;;;;;;;;5128379;28;20474;-71
2021/03/23 03:18:09;;;;;;;5.37;2.10;;;;;;;;;;5116544;28;20863;-71
2021/03/23 03:20:37;;;;;;;4.50;2.40;;;;;;;;;;5117081;28;20457;-72
2021/03/23 03:23:05;;;;;;;5.20;2.00;;;;;;;;;;5117630;28;20593;-72
2021/03/23 03:25:33;;;;;;;4.27;2.63;;;;;;;;;;5116471;28;20442;-72
2021/03/23 03:28:02;;;;;;;4.20;2.20;;;;;;;;;;5116570;28;20456;-72
2021/03/23 03:30:32;;;;;;;2.47;2.07;;;;;;;;;;5118958;28;20837;-72
2021/03/23 03:33:00;;;;;;;3.57;2.03;;;;;;;;;;5119756;28;20507;-72
2021/03/23 03:35:31;;;;;;;4.00;1.60;;;;;;;;;;5119714;28;20742;-72
2021/03/23 03:37:58;;;;;;;4.00;2.27;;;;;;;;;;5119716;28;20454;-72
2021/03/23 03:40:28;;;;;;;3.20;1.93;;;;;;;;;;5120038;28;20451;-72
2021/03/23 03:42:55;;;;;;;5.10;2.63;;;;;;;;;;5119473;28;20494;-71
2021/03/23 03:45:23;;;;;;;3.90;2.63;;;;;;;;;;5119637;28;20457;-71
2021/03/23 03:47:55;;;;;;;6.30;1.87;;;;;;;;;;5119109;28;20874;-72
2021/03/23 03:50:26;;;;;;;3.57;2.37;;;;;;;;;;5119011;28;20447;-72
2021/03/23 03:52:56;;;;;;;5.10;2.23;;;;;;;;;;5119650;28;20870;-72
2021/03/23 03:55:31;;;;;;;9.00;3.07;;;;;;;;;;5118916;28;20847;-72
2021/03/23 03:57:58;;;;;;;2.80;1.93;;;;;;;;;;5118944;28;20948;-72
2021/03/23 04:00:31;;;;;;;3.50;2.10;;;;;;;;;;5118904;28;20446;-73
2021/03/23 04:02:59;;;;;;;8.30;1.77;;;;;;;;;;5119496;28;20490;-72
2021/03/23 04:05:30;;;;;;;5.57;2.33;;;;;;;;;;5119287;28;20455;-71
2021/03/23 04:07:58;;;;;;;8.60;2.60;;;;;;;;;;5119209;28;20454;-72
2021/03/23 04:10:26;;;;;;;4.90;2.30;;;;;;;;;;5111670;28;20867;-72
2021/03/23 04:12:55;;;;;;;3.43;2.07;;;;;;;;;;5119355;28;20859;-72
2021/03/23 04:15:23;;;;;;;3.27;1.70;;;;;;;;;;5118638;28;20435;-72
2021/03/23 04:17:51;;;;;;;4.53;2.77;;;;;;;;;;5118079;28;20523;-73
2021/03/23 04:20:23;;;;;;;3.33;1.70;;;;;;;;;;5119140;28;20461;-72
2021/03/23 04:22:50;;;;;;;5.70;1.47;;;;;;;;;;5119149;28;20499;-72
2021/03/23 04:25:19;;;;;;;5.40;2.00;;;;;;;;;;5119154;28;20449;-72
2021/03/23 04:27:47;;;;;;;6.60;1.20;;;;;;;;;;5118682;28;20527;-72
2021/03/23 04:30:18;;;;;;;4.73;2.03;;;;;;;;;;5119007;28;20485;-72
2021/03/23 04:32:47;;;;;;;4.23;1.60;;;;;;;;;;5119455;28;20462;-72
2021/03/23 04:35:26;;;;;;;2.70;1.70;;;;;;;;;;5118529;28;20892;-72
2021/03/23 04:37:55;;;;;;;4.73;1.57;;;;;;;;;;5118504;28;20454;-73
2021/03/23 04:40:23;;;;;;;6.10;1.63;;;;;;;;;;5118279;28;20454;-73
2021/03/23 04:42:51;;;;;;;4.27;1.90;;;;;;;;;;5118890;28;20768;-72
2021/03/23 04:45:19;;;;;;;4.60;2.20;;;;;;;;;;5118596;28;20452;-72
2021/03/23 04:47:46;;;;;;;5.20;1.87;;;;;;;;;;5118954;28;20466;-72
2021/03/23 04:50:14;;;;;;;10.00;2.10;;;;;;;;;;5118498;28;20461;-72
2021/03/23 04:52:42;;;;;;;4.80;2.30;;;;;;;;;;5098186;28;20452;-71
2021/03/23 04:55:16;;;;;;;3.30;2.20;;;;;;;;;;5098235;28;20459;-73
2021/03/23 04:57:43;;;;;;;3.17;1.70;;;;;;;;;;5098225;28;20471;-73
2021/03/23 05:00:14;;;;;;;6.00;1.83;;;;;;;;;;5098096;28;20471;-72
2021/03/23 05:02:41;;;;;;;9.60;2.63;;;;;;;;;;5099335;28;20530;-72
2021/03/23 05:05:09;;;;;;;4.40;2.00;;;;;;;;;;5118564;28;20478;-72
2021/03/23 05:07:37;;;;;;;5.63;1.90;;;;;;;;;;5117554;28;20458;-72
2021/03/23 05:10:07;;;;;;;3.60;2.27;;;;;;;;;;5118366;28;20482;-72
2021/03/23 05:12:34;;;;;;;3.60;2.30;;;;;;;;;;5117861;28;20457;-72
2021/03/23 05:15:02;;;;;;;7.33;2.43;;;;;;;;;;5119405;28;20465;-72
2021/03/23 05:17:29;;;;;;;3.10;2.30;;;;;;;;;;5119164;28;20451;-72
2021/03/23 05:19:56;;;;;;;2.30;1.40;;;;;;;;;;5117889;28;20736;-72
2021/03/23 05:22:23;;;;;;;4.07;2.37;;;;;;;;;;5118112;28;20518;-72
2021/03/23 05:24:51;;;;;;;3.10;2.13;;;;;;;;;;5117635;28;20441;-72
2021/03/23 05:27:19;;;;;;;5.80;3.30;;;;;;;;;;5104384;28;20459;-72
2021/03/23 05:29:46;;;;;;;6.13;2.73;;;;;;;;;;5097557;28;20444;-72
2021/03/23 05:32:13;;;;;;;6.83;2.10;;;;;;;;;;5103855;28;20486;-72
2021/03/23 05:34:41;;;;;;;3.70;2.23;;;;;;;;;;5117491;28;20461;-72
2021/03/23 05:37:08;;;;;;;5.20;2.43;;;;;;;;;;5118385;28;20460;-72
2021/03/23 05:39:35;;;;;;;3.10;1.90;;;;;;;;;;5117296;28;20449;-72
2021/03/23 05:42:06;;;;;;;9.87;3.40;;;;;;;;;;5116923;28;20451;-73
2021/03/23 05:44:46;;;;;;;3.73;2.13;;;;;;;;;;5116888;28;21023;-72
2021/03/23 05:47:13;;;;;;;3.60;2.20;;;;;;;;;;5117297;28;20465;-73
2021/03/23 05:49:41;;;;;;;3.10;2.50;;;;;;;;;;5116723;28;20458;-72
2021/03/23 05:52:14;;;;;;;5.30;3.30;;;;;;;;;;5115914;28;20459;-72
2021/03/23 05:54:44;;;;;;;12.33;3.37;;;;;;;;;;5116357;28;20883;-72
2021/03/23 05:57:17;;;;;;;6.37;2.50;;;;;;;;;;5116190;28;20466;-72
2021/03/23 05:59:46;;;;;;;8.40;2.97;;;;;;;;;;5116335;28;20452;-73
2021/03/23 06:02:22;;;;;;;9.43;2.40;;;;;;;;;;5115933;28;20469;-72
2021/03/23 06:05:11;;;;;;;8.43;2.53;;;;;;;;;;5113110;28;20458;-72
2021/03/23 06:07:39;;;;;;;4.30;2.80;;;;;;;;;;5116348;28;20761;-71
2021/03/23 06:10:14;;;;;;;6.83;2.80;;;;;;;;;;5116975;28;20466;-73
2021/03/23 06:12:44;;;;;;;5.63;2.90;;;;;;;;;;5116399;28;20439;-73
2021/03/23 06:15:17;;;;;;;3.97;2.90;;;;;;;;;;5116080;28;20455;-73
2021/03/23 06:17:47;;;;;;;3.90;2.60;;;;;;;;;;5115779;28;20446;-73
2021/03/23 06:20:20;;;;;;;5.03;2.57;;;;;;;;;;5116470;28;20466;-73
2021/03/23 06:23:04;;;;;;;10.07;3.37;;;;;;;;;;5114952;28;20494;-73
2021/03/23 06:25:37;;;;;;;6.23;3.30;;;;;;;;;;5121896;28;20459;-73
2021/03/23 06:28:16;;;;;;;7.80;3.30;;;;;;;;;;5115357;28;20465;-73
2021/03/23 06:30:51;;;;;;;9.57;2.87;;;;;;;;;;5113940;28;20468;-73
2021/03/23 06:33:21;;;;;;;4.53;2.50;;;;;;;;;;5114790;28;20521;-73
2021/03/23 06:35:49;;;;;;;11.73;4.67;;;;;;;;;;5115912;28;20455;-73
2021/03/23 06:38:22;;;;;;;7.30;3.23;;;;;;;;;;5115372;28;20922;-73
2021/03/23 06:41:07;;;;;;;6.03;3.40;;;;;;;;;;5114807;28;20459;-73
2021/03/23 06:43:35;;;;;;;8.80;4.10;;;;;;;;;;5114789;28;20482;-72
2021/03/23 06:46:05;;;;;;;10.23;3.80;;;;;;;;;;5115045;28;20463;-73
2021/03/23 06:48:33;;;;;;;7.90;4.27;;;;;;;;;;5117534;28;20448;-73
2021/03/23 06:51:08;;;;;;;8.20;3.50;;;;;;;;;;5116641;28;21018;-73
2021/03/23 06:53:36;;;;;;;6.40;3.10;;;;;;;;;;5115960;28;20461;-73
2021/03/23 06:56:17;;;;;;;8.33;4.23;;;;;;;;;;5116018;28;20563;-73
2021/03/23 06:59:02;;;;;;;6.43;3.17;;;;;;;;;;5114389;28;20456;-72
2021/03/23 07:01:37;;;;;;;7.53;3.40;;;;;;;;;;5114321;28;20455;-73
2021/03/23 07:04:16;;;;;;;8.07;4.30;;;;;;;;;;5114716;28;20736;-73
2021/03/23 07:06:44;;;;;;;9.50;3.83;;;;;;;;;;5118604;28;20473;-73
2021/03/23 07:09:13;;;;;;;8.30;4.13;;;;;;;;;;5118101;28;20449;-73
2021/03/23 07:11:55;;;;;;;7.90;3.80;;;;;;;;;;5118433;28;20735;-73
2021/03/23 07:14:24;;;;;;;6.13;3.50;;;;;;;;;;5115072;28;20448;-73
2021/03/23 07:17:01;;;;;;;14.43;4.60;;;;;;;;;;5099327;28;20465;-73
2021/03/23 07:19:29;;;;;;;7.40;4.73;;;;;;;;;;5099861;28;20448;-73
2021/03/23 07:22:04;;;;;;;9.63;5.17;;;;;;;;;;5105124;28;20482;-73
2021/03/23 07:24:32;;;;;;;6.70;3.70;;;;;;;;;;5097892;28;20523;-73
2021/03/23 07:27:01;;;;;;;7.30;3.87;;;;;;;;;;5099481;28;20468;-72
2021/03/23 07:29:30;;;;;;;8.50;4.43;;;;;;;;;;5135386;27;20873;-72
2021/03/23 07:32:05;;;;;;;7.87;3.90;;;;;;;;;;5138239;27;20461;-72
2021/03/23 07:34:35;;;;;;;7.60;3.77;;;;;;;;;;5140238;27;20810;-72
2021/03/23 07:37:05;;;;;;;5.60;2.90;;;;;;;;;;5137689;27;20457;-72
2021/03/23 07:39:37;;;;;;;6.87;3.50;;;;;;;;;;5116719;27;20882;-72
2021/03/23 07:42:06;;;;;;;9.20;3.87;;;;;;;;;;5109518;28;20941;-72
2021/03/23 07:44:37;;;;;;;5.17;3.10;;;;;;;;;;5111510;28;20570;-72
2021/03/23 07:47:21;;;;;;;10.37;4.33;;;;;;;;;;5117787;28;20462;-72
2021/03/23 07:49:58;;;;;;;9.30;4.83;;;;;;;;;;5115440;28;20454;-73
2021/03/23 07:52:26;;;;;;;14.33;4.30;;;;;;;;;;5115653;28;20466;-72
2021/03/23 07:54:58;;;;;;;10.40;5.10;;;;;;;;;;5117212;28;20454;-72
2021/03/23 07:57:44;;;;;;;11.33;4.60;;;;;;;;;;5122282;27;20457;-74
2021/03/23 08:00:21;;;;;;;7.97;5.53;;;;;;;;;;5135836;27;20442;-72
2021/03/23 08:02:55;;;;;;;11.63;4.87;;;;;;;;;;5135676;27;20524;-72
2021/03/23 08:05:29;;;;;;;10.53;4.67;;;;;;;;;;5124445;27;20478;-72
2021/03/23 08:08:03;;;;;;;15.27;5.17;;;;;;;;;;5098009;28;20458;-72
2021/03/23 08:10:36;;;;;;;8.27;5.47;;;;;;;;;;5100172;28;20875;-72
2021/03/23 08:13:12;;;;;;;8.23;4.53;;;;;;;;;;5106589;27;20455;-72
2021/03/23 08:15:54;;;;;;;9.47;4.37;;;;;;;;;;5116849;28;20451;-72
2021/03/23 08:18:48;;;;;;;8.33;4.80;;;;;;;;;;5114547;28;20459;-72
2021/03/23 08:21:34;;;;;;;13.53;4.60;;;;;;;;;;5117024;28;20516;-72
2021/03/23 08:24:05;;;;;;;8.63;4.60;;;;;;;;;;5118646;27;20481;-72
2021/03/23 08:26:43;;;;;;;10.90;5.00;;;;;;;;;;5117353;28;20454;-72
2021/03/23 08:29:16;;;;;;;14.10;4.60;;;;;;;;;;5117375;28;20443;-72
2021/03/23 08:31:51;;;;;;;12.70;6.63;;;;;;;;;;5116095;28;20451;-72
2021/03/23 08:34:26;;;;;;;9.27;5.57;;;;;;;;;;5116330;28;20538;-71
2021/03/23 08:37:04;;;;;;;8.10;4.50;;;;;;;;;;5116798;28;20461;-71
2021/03/23 08:39:37;;;;;;;9.97;5.90;;;;;;;;;;5096973;28;20440;-71
2021/03/23 08:42:06;;;;;;;10.63;6.40;;;;;;;;;;5097364;28;20467;-71
2021/03/23 08:44:37;;;;;;;8.70;4.77;;;;;;;;;;5097535;28;20512;-71
2021/03/23 08:47:23;;;;;;;8.33;5.17;;;;;;;;;;5097084;28;20472;-72
2021/03/23 08:49:59;;;;;;;12.73;5.10;;;;;;;;;;5108644;28;20482;-72
2021/03/23 08:52:41;;;;;;;10.90;6.00;;;;;;;;;;5097458;28;20452;-72
2021/03/23 08:55:31;;;;;;;15.50;8.47;;;;;;;;;;5099724;28;20455;-72
2021/03/23 08:58:05;;;;;;;9.07;6.20;;;;;;;;;;5116691;28;20871;-71
2021/03/23 09:00:50;;;;;;;10.50;7.67;;;;;;;;;;5118283;28;20453;-72
2021/03/23 09:03:35;;;;;;;12.83;6.70;;;;;;;;;;5115587;28;20482;-73
2021/03/23 09:06:04;;;;;;;13.77;7.70;;;;;;;;;;5080634;28;20456;-71
2021/03/23 09:08:40;;;;;;;21.83;9.50;;;;;;;;;;5098265;28;20727;-71
2021/03/23 09:11:08;;;;;;;16.30;7.70;;;;;;;;;;5096495;28;20482;-71
2021/03/23 09:13:54;;;;;;;17.40;7.47;;;;;;;;;;5096662;28;20453;-73
2021/03/23 09:16:42;;;;;;;14.63;8.67;;;;;;;;;;5096790;28;20484;-72
2021/03/23 09:19:10;;;;;;;19.50;8.30;;;;;;;;;;5097093;28;21122;-72
2021/03/23 09:22:01;;;;;;;17.43;9.47;;;;;;;;;;5097020;28;20717;-72
2021/03/23 09:24:31;;;;;;;20.43;8.20;;;;;;;;;;5115395;28;20475;-72
2021/03/23 09:26:58;;;;;;;16.33;8.43;;;;;;;;;;5116959;28;20486;-72
2021/03/23 09:29:47;;;;;;;10.00;6.77;;;;;;;;;;5115966;28;20462;-72
2021/03/23 09:32:19;;;;;;;12.77;7.37;;;;;;;;;;5117158;28;20830;-74
2021/03/23 09:35:09;;;;;;;15.97;8.10;;;;;;;;;;5116419;28;20722;-74
2021/03/23 09:37:37;;;;;;;16.53;8.23;;;;;;;;;;5114018;28;20552;-72
2021/03/23 09:40:23;;;;;;;19.80;9.90;;;;;;;;;;5117274;28;20441;-73
2021/03/23 09:43:08;;;;;;;17.43;8.37;;;;;;;;;;5114357;28;20488;-72
2021/03/23 09:45:37;;;;;;;18.33;9.43;;;;;;;;;;5113575;28;20474;-71
2021/03/23 09:48:21;;;;;;;18.83;8.50;;;;;;;;;;5117845;28;20466;-72
2021/03/23 09:50:59;;;;;;;18.17;8.13;;;;;;;;;;5097761;28;20443;-72
2021/03/23 09:53:35;;;;;;;13.03;8.20;;;;;;;;;;5116748;28;20711;-71
2021/03/23 09:56:07;;;;;;;18.00;10.23;;;;;;;;;;5103884;28;20479;-71
2021/03/23 09:58:40;;;;;;;20.90;9.47;;;;;;;;;;5095952;28;20451;-71
2021/03/23 10:01:11;;;;;;;19.60;9.17;;;;;;;;;;5094931;28;20740;-71
2021/03/23 10:03:42;;;;;;;21.63;10.40;;;;;;;;;;5096399;28;20549;-71
2021/03/23 10:06:14;;;;;;;16.13;9.23;;;;;;;;;;5094419;28;20890;-71
2021/03/23 10:09:05;;;;;;;15.30;8.87;;;;;;;;;;5094167;28;20949;-73
2021/03/23 10:11:35;;;;;;;36.07;10.30;;;;;;;;;;5110936;28;20462;-72
2021/03/23 10:14:10;;;;;;;22.10;8.80;;;;;;;;;;5115724;28;20882;-72
2021/03/23 10:16:38;;;;;;;14.93;9.47;;;;;;;;;;5116257;28;20447;-73
2021/03/23 10:19:07;;;;;;;17.40;7.80;;;;;;;;;;5116400;28;20454;-73
2021/03/23 10:21:35;;;;;;;17.07;8.30;;;;;;;;;;5115737;28;20685;-71
2021/03/23 10:24:05;;;;;;;19.93;8.97;;;;;;;;;;5111166;28;20479;-72
2021/03/23 10:26:37;;;;;;;12.53;9.07;;;;;;;;;;5101188;28;20460;-72
2021/03/23 10:29:17;;;;;;;20.70;10.60;;;;;;;;;;5095264;28;20550;-72
2021/03/23 10:31:49;;;;;;;22.37;10.43;;;;;;;;;;5110737;28;20462;-72
2021/03/23 10:34:39;;;;;;;14.40;8.13;;;;;;;;;;5115944;28;20487;-72
2021/03/23 10:37:10;;;;;;;15.10;8.33;;;;;;;;;;5114350;28;20476;-72
2021/03/23 10:39:50;;;;;;;19.30;9.23;;;;;;;;;;5113676;28;20566;-73
2021/03/23 10:42:20;;;;;;;19.73;11.37;;;;;;;;;;5114990;28;20467;-72
2021/03/23 10:44:49;;;;;;;22.53;11.17;;;;;;;;;;5119762;28;20479;-71
2021/03/23 10:47:29;;;;;;;12.03;8.30;;;;;;;;;;5120599;28;20451;-72
2021/03/23 10:49:56;;;;;;;13.63;8.70;;;;;;;;;;5131723;27;20466;-71
2021/03/23 10:52:29;;;;;;;21.60;10.17;;;;;;;;;;5137136;27;20493;-71
2021/03/23 10:55:12;;;;;;;18.83;9.00;;;;;;;;;;5118992;28;20445;-71
2021/03/23 10:57:41;;;;;;;18.77;9.40;;;;;;;;;;5111727;28;20482;-71
2021/03/23 11:00:23;;;;;;;14.30;9.17;;;;;;;;;;5111849;28;20467;-71
2021/03/23 11:03:55;;;;;;;22.53;12.40;;;;;;;;;;5113234;28;21023;-72
2021/03/23 11:06:31;;;;;;;19.07;8.80;;;;;;;;;;5116160;27;21020;-73
2021/03/23 11:09:04;;;;;;;17.70;9.30;;;;;;;;;;5120652;28;20455;-71
2021/03/23 11:11:33;;;;;;;14.67;9.90;;;;;;;;;;5124485;27;20482;-70
2021/03/23 11:14:00;;;;;;;16.47;9.70;;;;;;;;;;5120467;28;20450;-71
2021/03/23 11:16:34;;;;;;;16.70;9.30;;;;;;;;;;5116306;28;20478;-72
2021/03/23 11:19:06;;;;;;;17.00;9.27;;;;;;;;;;5119778;28;20905;-71
2021/03/23 11:21:35;;;;;;;22.20;11.97;;;;;;;;;;5120126;28;21054;-71
2021/03/23 11:24:05;;;;;;;17.90;9.13;;;;;;;;;;5119180;28;20518;-71
2021/03/23 11:26:33;;;;;;;20.70;9.13;;;;;;;;;;5121282;27;20450;-70
2021/03/23 11:29:03;;;;;;;16.40;8.70;;;;;;;;;;5120833;28;20464;-70
2021/03/23 11:31:34;;;;;;;16.67;8.73;;;;;;;;;;5120974;28;20456;-72
2021/03/23 11:34:02;;;;;;;19.97;11.00;;;;;;;;;;5119533;28;20450;-71
2021/03/23 11:36:30;;;;;;;20.70;10.70;;;;;;;;;;5119644;28;20443;-71
2021/03/23 11:38:59;;;;;;;17.73;8.53;;;;;;;;;;5119907;28;20825;-72
2021/03/23 11:41:32;;;;;;;21.10;10.77;;;;;;;;;;5120333;28;20457;-72
2021/03/23 11:44:09;;;;;;;15.03;10.60;;;;;;;;;;5118934;28;20477;-72
2021/03/23 11:46:40;;;;;;;22.50;9.80;;;;;;;;;;5118286;28;20655;-72
2021/03/23 11:49:11;;;;;;;23.37;9.63;;;;;;;;;;5119197;28;20446;-73
2021/03/23 11:51:41;;;;;;;20.63;10.40;;;;;;;;;;5117527;28;20456;-72
2021/03/23 11:54:14;;;;;;;18.57;10.30;;;;;;;;;;5118474;28;20459;-73
2021/03/23 11:56:41;;;;;;;21.13;8.90;;;;;;;;;;5117505;28;20940;-72
2021/03/23 11:59:09;;;;;;;17.10;9.80;;;;;;;;;;5115976;28;20461;-72
2021/03/23 12:01:40;;;;;;;18.97;8.90;;;;;;;;;;5117923;27;20470;-72
2021/03/23 12:04:09;;;;;;;14.40;8.70;;;;;;;;;;5118414;28;20573;-71
2021/03/23 12:06:38;;;;;;;23.80;9.83;;;;;;;;;;5118677;28;20463;-72
2021/03/23 12:09:09;;;;;;;18.73;10.57;;;;;;;;;;5117788;28;20457;-72
2021/03/23 12:11:41;;;;;;;19.00;11.17;;;;;;;;;;5119044;28;20743;-73
2021/03/23 12:14:19;;;;;;;20.73;11.43;;;;;;;;;;5106903;28;20454;-72
2021/03/23 12:16:55;;;;;;;25.90;12.00;;;;;;;;;;5099683;28;20466;-71
2021/03/23 12:19:27;;;;;;;19.40;11.23;;;;;;;;;;5105056;28;20479;-73
2021/03/23 12:21:54;;;;;;;24.30;11.70;;;;;;;;;;5117539;28;20732;-72
2021/03/23 12:24:24;;;;;;;21.30;10.10;;;;;;;;;;5112563;28;20485;-73
2021/03/23 12:26:55;;;;;;;24.13;12.53;;;;;;;;;;5115254;28;20938;-72
2021/03/23 12:29:22;;;;;;;28.90;10.07;;;;;;;;;;5114316;28;20448;-72
2021/03/23 12:31:51;;;;;;;15.47;11.23;;;;;;;;;;5097550;28;20477;-72
2021/03/23 12:34:18;;;;;;;19.67;11.80;;;;;;;;;;5107659;28;20448;-71
2021/03/23 12:36:46;;;;;;;16.60;9.40;;;;;;;;;;5117550;28;20485;-72
2021/03/23 12:39:16;;;;;;;15.60;9.80;;;;;;;;;;5116620;28;20612;-72
2021/03/23 12:41:46;;;;;;;17.10;9.30;;;;;;;;;;5117145;28;20812;-72
2021/03/23 12:44:16;;;;;;;19.50;10.70;;;;;;;;;;5113809;28;20501;-73
2021/03/23 12:46:44;;;;;;;23.03;12.23;;;;;;;;;;5096402;28;21035;-73
2021/03/23 12:49:12;;;;;;;17.83;11.37;;;;;;;;;;5096717;28;20449;-72
2021/03/23 12:51:45;;;;;;;17.60;11.13;;;;;;;;;;5099696;28;20499;-73
2021/03/23 12:54:15;;;;;;;18.77;11.87;;;;;;;;;;5118715;27;20459;-72
2021/03/23 12:56:42;;;;;;;14.10;6.60;;;;;;;;;;5116803;27;20538;-72
2021/03/23 12:59:11;;;;;;;23.17;12.13;;;;;;;;;;5117094;27;20452;-72
2021/03/23 13:01:38;;;;;;;34.13;9.80;;;;;;;;;;5116115;28;20459;-73
2021/03/23 13:04:13;;;;;;;28.83;12.37;;;;;;;;;;5117280;28;20535;-73
2021/03/23 13:06:44;;;;;;;23.43;11.70;;;;;;;;;;5116591;28;20486;-73
2021/03/23 13:09:15;;;;;;;28.97;12.10;;;;;;;;;;5116458;28;20815;-72
2021/03/23 13:11:44;;;;;;;19.27;12.00;;;;;;;;;;5115943;28;20739;-73
2021/03/23 13:14:19;;;;;;;23.17;14.97;;;;;;;;;;5115713;28;20797;-73
2021/03/23 13:16:46;;;;;;;23.40;13.03;;;;;;;;;;5116947;28;20439;-72
2021/03/23 13:19:16;;;;;;;17.70;10.37;;;;;;;;;;5117174;28;20463;-72
2021/03/23 13:21:47;;;;;;;17.97;11.20;;;;;;;;;;5117689;28;20838;-72
2021/03/23 13:24:28;;;;;;;24.30;12.50;;;;;;;;;;5118047;28;20485;-73
2021/03/23 13:27:00;;;;;;;24.00;13.63;;;;;;;;;;5117791;28;20494;-72
2021/03/23 13:29:29;;;;;;;26.20;12.57;;;;;;;;;;5116734;28;20455;-72
2021/03/23 13:32:06;;;;;;;20.13;12.70;;;;;;;;;;5117554;28;20816;-72
2021/03/23 13:34:43;;;;;;;23.37;12.30;;;;;;;;;;5119957;28;20443;-72
2021/03/23 13:37:19;;;;;;;21.10;13.50;;;;;;;;;;5116862;28;20547;-72
2021/03/23 13:39:51;;;;;;;28.07;13.60;;;;;;;;;;5116114;28;20724;-72
2021/03/23 13:42:20;;;;;;;32.83;11.73;;;;;;;;;;5115768;28;20807;-72
2021/03/23 13:44:53;;;;;;;19.67;13.20;;;;;;;;;;5117204;28;20486;-71
2021/03/23 13:47:23;;;;;;;20.80;14.13;;;;;;;;;;5117638;28;20559;-71
2021/03/23 13:49:50;;;;;;;21.33;12.80;;;;;;;;;;5116770;28;20960;-72
2021/03/23 13:52:42;;;;;;;24.90;14.00;;;;;;;;;;5116850;28;20451;-72
2021/03/23 13:55:16;;;;;;;21.60;13.53;;;;;;;;;;5118616;28;20557;-72
2021/03/23 13:57:49;;;;;;;20.80;12.63;;;;;;;;;;5116136;28;20800;-72
2021/03/23 14:00:18;;;;;;;21.20;10.83;;;;;;;;;;5115775;28;20479;-72
2021/03/23 14:02:56;;;;;;;21.67;11.73;;;;;;;;;;5118499;28;20461;-72
2021/03/23 14:05:24;;;;;;;17.00;10.77;;;;;;;;;;5116926;28;20484;-72
2021/03/23 14:07:52;;;;;;;17.50;11.23;;;;;;;;;;5117562;28;20521;-73
2021/03/23 14:10:39;;;;;;;14.57;10.40;;;;;;;;;;5117932;28;20471;-72
2021/03/23 14:13:16;;;;;;;18.20;11.43;;;;;;;;;;5116490;28;20456;-72
2021/03/23 14:15:51;;;;;;;22.83;12.00;;;;;;;;;;5115799;28;20555;-72
2021/03/23 14:18:40;;;;;;;21.33;11.23;;;;;;;;;;5119053;28;20487;-72
2021/03/23 14:21:08;;;;;;;20.10;11.33;;;;;;;;;;5099004;28;20511;-71
2021/03/23 14:23:41;;;;;;;22.37;13.07;;;;;;;;;;5123057;27;20559;-72
2021/03/23 14:26:10;;;;;;;17.30;11.30;;;;;;;;;;5119874;27;20450;-72
2021/03/23 14:28:40;;;;;;;23.40;12.63;;;;;;;;;;5115158;28;20497;-72
2021/03/23 14:31:23;;;;;;;21.47;12.10;;;;;;;;;;5112837;28;20466;-73
2021/03/23 14:33:53;;;;;;;18.73;9.60;;;;;;;;;;5117726;28;20459;-73
2021/03/23 14:36:24;;;;;;;19.70;12.00;;;;;;;;;;5109884;28;20486;-73
2021/03/23 14:39:00;;;;;;;19.37;11.17;;;;;;;;;;5099212;28;20466;-74
2021/03/23 14:41:36;;;;;;;21.90;13.00;;;;;;;;;;5103801;28;20919;-74
2021/03/23 14:44:04;;;;;;;19.50;12.10;;;;;;;;;;5131963;28;20543;-73
2021/03/23 14:46:35;;;;;;;21.30;12.67;;;;;;;;;;5137338;28;20474;-74
2021/03/23 14:49:06;;;;;;;17.70;12.43;;;;;;;;;;5120772;28;20555;-73
2021/03/23 14:51:34;;;;;;;15.07;9.03;;;;;;;;;;5098679;28;20469;-73
2021/03/23 14:54:08;;;;;;;19.17;12.00;;;;;;;;;;5096993;28;20455;-73
2021/03/23 14:56:44;;;;;;;21.03;12.30;;;;;;;;;;5107733;28;20495;-73
2021/03/23 14:59:40;;;;;;;27.50;13.27;;;;;;;;;;5108490;28;20464;-73